sensor_id;sensor_type;location;lat;lon;timestamp;pressure;altitude;pressure_sealevel;temperature;humidity
55610;BME280;41486;52.502;13.486;2022-11-06T00:00:06;101329.38;;;5.31;100.00
55610;BME280;41486;52.502;13.486;2022-11-06T00:02:34;101329.78;;;5.22;100.00
55610;BME280;41486;52.502;13.486;2022-11-06T00:05:03;101334.91;;;5.44;100.00
55610;BME280;41486;52.502;13.486;2022-11-06T00:07:45;101339.81;;;5.31;100.00
55610;BME280;41486;52.502;13.486;2022-11-06T00:10:13;101334.59;;;5.31;100.00
55610;BME280;41486;52.502;13.486;2022-11-06T00:12:42;101332.22;;;5.25;100.00
55610;BME280;41486;52.502;13.486;2022-11-06T00:15:11;101327.56;;;5.13;100.00
55610;BME280;41486;52.502;13.486;2022-11-06T00:17:39;101327.16;;;5.22;100.00
55610;BME280;41486;52.502;13.486;2022-11-06T00:20:08;101333.63;;;5.34;100.00
55610;BME280;41486;52.502;13.486;2022-11-06T00:22:37;101327.56;;;5.13;100.00
55610;BME280;41486;52.502;13.486;2022-11-06T00:25:05;101324.03;;;5.14;100.00
55610;BME280;41486;52.502;13.486;2022-11-06T00:27:34;101319.34;;;5.22;100.00
55610;BME280;41486;52.502;13.486;2022-11-06T00:30:03;101324.09;;;5.12;100.00
55610;BME280;41486;52.502;13.486;2022-11-06T00:32:32;101323.13;;;5.15;100.00
55610;BME280;41486;52.502;13.486;2022-11-06T00:35:00;101320.09;;;5.03;100.00
55610;BME280;41486;52.502;13.486;2022-11-06T00:37:28;101331.22;;;5.09;100.00
55610;BME280;41486;52.502;13.486;2022-11-06T00:39:56;101326.38;;;4.99;100.00
55610;BME280;41486;52.502;13.486;2022-11-06T00:42:25;101333.06;;;5.05;100.00
55610;BME280;41486;52.502;13.486;2022-11-06T00:44:52;101319.97;;;5.27;100.00
55610;BME280;41486;52.502;13.486;2022-11-06T00:47:20;101325.91;;;5.31;100.00
55610;BME280;41486;52.502;13.486;2022-11-06T00:49:49;101322.44;;;5.10;100.00
55610;BME280;41486;52.502;13.486;2022-11-06T00:52:17;101317.38;;;5.27;100.00
55610;BME280;41486;52.502;13.486;2022-11-06T00:54:45;101315.66;;;5.26;100.00
55610;BME280;41486;52.502;13.486;2022-11-06T00:57:13;101315.44;;;5.32;100.00
55610;BME280;41486;52.502;13.486;2022-11-06T00:59:41;101327.75;;;5.08;100.00
55610;BME280;41486;52.502;13.486;2022-11-06T01:02:08;101320.44;;;4.96;100.00
55610;BME280;41486;52.502;13.486;2022-11-06T01:04:36;101325.78;;;5.13;100.00
55610;BME280;41486;52.502;13.486;2022-11-06T01:07:05;101326.19;;;5.25;100.00
55610;BME280;41486;52.502;13.486;2022-11-06T01:09:33;101317.22;;;5.10;100.00
55610;BME280;41486;52.502;13.486;2022-11-06T01:12:01;101317.19;;;5.11;100.00
55610;BME280;41486;52.502;13.486;2022-11-06T01:14:40;101317.88;;;4.94;100.00
55610;BME280;41486;52.502;13.486;2022-11-06T01:17:08;101325.78;;;4.93;100.00
55610;BME280;41486;52.502;13.486;2022-11-06T01:19:36;101320.38;;;4.97;100.00
55610;BME280;41486;52.502;13.486;2022-11-06T01:22:05;101326.44;;;4.98;100.00
55610;BME280;41486;52.502;13.486;2022-11-06T01:24:33;101317.31;;;5.08;100.00
55610;BME280;41486;52.502;13.486;2022-11-06T01:27:01;101310.59;;;5.02;100.00
55610;BME280;41486;52.502;13.486;2022-11-06T01:29:49;101310.47;;;5.05;100.00
55610;BME280;41486;52.502;13.486;2022-11-06T01:32:17;101301.94;;;5.02;100.00
55610;BME280;41486;52.502;13.486;2022-11-06T01:34:45;101302.94;;;4.98;100.00
55610;BME280;41486;52.502;13.486;2022-11-06T01:37:14;101300.75;;;4.88;100.00
55610;BME280;41486;52.502;13.486;2022-11-06T01:39:42;101296.72;;;5.02;100.00
55610;BME280;41486;52.502;13.486;2022-11-06T01:42:11;101287.91;;;5.04;100.00
55610;BME280;41486;52.502;13.486;2022-11-06T01:47:34;101295.66;;;5.06;100.00
55610;BME280;41486;52.502;13.486;2022-11-06T01:50:06;101285.53;;;4.78;100.00
55610;BME280;41486;52.502;13.486;2022-11-06T01:52:36;101285.22;;;4.85;100.00
55610;BME280;41486;52.502;13.486;2022-11-06T01:55:08;101279.22;;;4.83;100.00
55610;BME280;41486;52.502;13.486;2022-11-06T01:57:37;101268.09;;;5.00;100.00
55610;BME280;41486;52.502;13.486;2022-11-06T02:00:07;101275.41;;;4.92;100.00
55610;BME280;41486;52.502;13.486;2022-11-06T02:02:35;101270.28;;;5.10;100.00
55610;BME280;41486;52.502;13.486;2022-11-06T02:05:05;101273.16;;;5.03;100.00
55610;BME280;41486;52.502;13.486;2022-11-06T02:07:33;101266.38;;;4.99;100.00
55610;BME280;41486;52.502;13.486;2022-11-06T02:10:03;101273.09;;;4.84;100.00
55610;BME280;41486;52.502;13.486;2022-11-06T02:12:41;101273.53;;;4.94;100.00
55610;BME280;41486;52.502;13.486;2022-11-06T02:15:14;101260.91;;;5.05;100.00
55610;BME280;41486;52.502;13.486;2022-11-06T02:17:57;101250.22;;;4.91;100.00
55610;BME280;41486;52.502;13.486;2022-11-06T02:20:49;101247.22;;;5.00;100.00
55610;BME280;41486;52.502;13.486;2022-11-06T02:23:30;101246.81;;;4.89;100.00
55610;BME280;41486;52.502;13.486;2022-11-06T02:26:17;101251.25;;;4.87;100.00
55610;BME280;41486;52.502;13.486;2022-11-06T02:28:53;101245.00;;;4.91;100.00
55610;BME280;41486;52.502;13.486;2022-11-06T02:31:25;101246.47;;;4.97;100.00
55610;BME280;41486;52.502;13.486;2022-11-06T02:33:58;101233.91;;;4.86;100.00
55610;BME280;41486;52.502;13.486;2022-11-06T02:36:32;101244.28;;;4.87;100.00
55610;BME280;41486;52.502;13.486;2022-11-06T02:39:04;101247.47;;;4.94;100.00
55610;BME280;41486;52.502;13.486;2022-11-06T02:41:36;101243.81;;;4.98;100.00
55610;BME280;41486;52.502;13.486;2022-11-06T02:44:09;101245.00;;;4.91;100.00
55610;BME280;41486;52.502;13.486;2022-11-06T02:46:41;101241.81;;;4.84;100.00
55610;BME280;41486;52.502;13.486;2022-11-06T02:49:12;101249.94;;;4.97;100.00
55610;BME280;41486;52.502;13.486;2022-11-06T02:51:45;101247.94;;;5.04;100.00
55610;BME280;41486;52.502;13.486;2022-11-06T02:54:17;101240.81;;;4.87;100.00
55610;BME280;41486;52.502;13.486;2022-11-06T02:56:48;101245.31;;;4.83;100.00
55610;BME280;41486;52.502;13.486;2022-11-06T02:59:21;101241.84;;;5.03;100.00
55610;BME280;41486;52.502;13.486;2022-11-06T03:01:51;101245.38;;;5.02;100.00
55610;BME280;41486;52.502;13.486;2022-11-06T03:04:27;101240.22;;;5.01;100.00
55610;BME280;41486;52.502;13.486;2022-11-06T03:07:00;101244.63;;;5.00;100.00
55610;BME280;41486;52.502;13.486;2022-11-06T03:09:32;101239.31;;;5.02;100.00
55610;BME280;41486;52.502;13.486;2022-11-06T03:12:06;101232.84;;;5.11;100.00
55610;BME280;41486;52.502;13.486;2022-11-06T03:14:45;101238.41;;;5.03;100.00
55610;BME280;41486;52.502;13.486;2022-11-06T03:17:21;101238.91;;;4.90;100.00
55610;BME280;41486;52.502;13.486;2022-11-06T03:19:53;101243.56;;;5.04;100.00
55610;BME280;41486;52.502;13.486;2022-11-06T03:22:26;101242.28;;;5.13;100.00
55610;BME280;41486;52.502;13.486;2022-11-06T03:24:58;101235.31;;;5.14;100.00
55610;BME280;41486;52.502;13.486;2022-11-06T03:27:32;101236.50;;;4.86;100.00
55610;BME280;41486;52.502;13.486;2022-11-06T03:30:05;101223.75;;;5.00;100.00
55610;BME280;41486;52.502;13.486;2022-11-06T03:32:45;101234.78;;;4.86;100.00
55610;BME280;41486;52.502;13.486;2022-11-06T03:35:20;101239.66;;;4.73;100.00
55610;BME280;41486;52.502;13.486;2022-11-06T03:37:55;101241.81;;;4.84;100.00
55610;BME280;41486;52.502;13.486;2022-11-06T03:40:27;101228.56;;;4.89;100.00
55610;BME280;41486;52.502;13.486;2022-11-06T03:42:58;101244.06;;;4.71;100.00
55610;BME280;41486;52.502;13.486;2022-11-06T03:45:31;101227.97;;;4.82;100.00
55610;BME280;41486;52.502;13.486;2022-11-06T03:48:02;101232.63;;;4.76;100.00
55610;BME280;41486;52.502;13.486;2022-11-06T03:50:36;101230.91;;;4.74;100.00
55610;BME280;41486;52.502;13.486;2022-11-06T03:53:08;101223.47;;;4.86;100.00
55610;BME280;41486;52.502;13.486;2022-11-06T03:55:44;101222.75;;;4.82;100.00
55610;BME280;41486;52.502;13.486;2022-11-06T03:58:17;101218.78;;;4.73;100.00
55610;BME280;41486;52.502;13.486;2022-11-06T04:00:50;101217.53;;;4.82;100.00
55610;BME280;41486;52.502;13.486;2022-11-06T04:03:22;101223.38;;;4.68;100.00
55610;BME280;41486;52.502;13.486;2022-11-06T04:05:54;101219.13;;;4.86;100.00
55610;BME280;41486;52.502;13.486;2022-11-06T04:08:25;101218.97;;;4.89;100.00
55610;BME280;41486;52.502;13.486;2022-11-06T04:11:15;101212.88;;;4.70;100.00
55610;BME280;41486;52.502;13.486;2022-11-06T04:14:03;101211.63;;;4.79;100.00
55610;BME280;41486;52.502;13.486;2022-11-06T04:16:37;101216.13;;;4.75;100.00
55610;BME280;41486;52.502;13.486;2022-11-06T04:19:13;101206.09;;;4.86;100.00
55610;BME280;41486;52.502;13.486;2022-11-06T04:21:55;101209.88;;;4.79;100.00
55610;BME280;41486;52.502;13.486;2022-11-06T04:24:33;101219.63;;;4.53;100.00
55610;BME280;41486;52.502;13.486;2022-11-06T04:27:28;101211.56;;;4.60;100.00
55610;BME280;41486;52.502;13.486;2022-11-06T04:30:03;101209.28;;;4.72;100.00
55610;BME280;41486;52.502;13.486;2022-11-06T04:33:01;101206.47;;;4.77;100.00
55610;BME280;41486;52.502;13.486;2022-11-06T04:35:47;101205.13;;;4.68;100.00
55610;BME280;41486;52.502;13.486;2022-11-06T04:38:23;101213.59;;;4.73;100.00
55610;BME280;41486;52.502;13.486;2022-11-06T04:40:57;101221.72;;;4.66;100.00
55610;BME280;41486;52.502;13.486;2022-11-06T04:43:35;101212.66;;;4.54;100.00
55610;BME280;41486;52.502;13.486;2022-11-06T04:46:07;101215.41;;;4.51;100.00
55610;BME280;41486;52.502;13.486;2022-11-06T04:48:39;101210.44;;;4.65;100.00
55610;BME280;41486;52.502;13.486;2022-11-06T04:51:09;101214.09;;;4.61;100.00
55610;BME280;41486;52.502;13.486;2022-11-06T04:53:38;101206.78;;;4.49;100.00
55610;BME280;41486;52.502;13.486;2022-11-06T04:56:10;101203.00;;;4.56;100.00
55610;BME280;41486;52.502;13.486;2022-11-06T04:58:38;101207.06;;;4.63;100.00
55610;BME280;41486;52.502;13.486;2022-11-06T05:01:07;101204.38;;;4.65;100.00
55610;BME280;41486;52.502;13.486;2022-11-06T05:03:35;101201.06;;;4.61;100.00
55610;BME280;41486;52.502;13.486;2022-11-06T05:06:05;101189.47;;;4.48;100.00
55610;BME280;41486;52.502;13.486;2022-11-06T05:08:33;101188.56;;;4.49;100.00
55610;BME280;41486;52.502;13.486;2022-11-06T05:11:01;101178.06;;;4.50;100.00
55610;BME280;41486;52.502;13.486;2022-11-06T05:13:29;101194.94;;;4.41;100.00
55610;BME280;41486;52.502;13.486;2022-11-06T05:15:57;101191.94;;;4.51;100.00
55610;BME280;41486;52.502;13.486;2022-11-06T05:18:26;101186.75;;;4.51;100.00
55610;BME280;41486;52.502;13.486;2022-11-06T05:20:58;101184.41;;;4.45;100.00
55610;BME280;41486;52.502;13.486;2022-11-06T05:23:41;101192.00;;;4.49;100.00
55610;BME280;41486;52.502;13.486;2022-11-06T05:26:09;101194.81;;;4.45;100.00
55610;BME280;41486;52.502;13.486;2022-11-06T05:28:37;101192.97;;;4.47;100.00
55610;BME280;41486;52.502;13.486;2022-11-06T05:31:05;101191.34;;;4.44;100.00
55610;BME280;41486;52.502;13.486;2022-11-06T05:33:32;101196.22;;;4.31;100.00
55610;BME280;41486;52.502;13.486;2022-11-06T05:36:00;101195.19;;;4.35;100.00
55610;BME280;41486;52.502;13.486;2022-11-06T05:38:28;101191.53;;;4.39;100.00
55610;BME280;41486;52.502;13.486;2022-11-06T05:40:58;101191.22;;;4.47;100.00
55610;BME280;41486;52.502;13.486;2022-11-06T05:43:26;101187.03;;;4.43;100.00
55610;BME280;41486;52.502;13.486;2022-11-06T05:45:53;101185.50;;;4.39;100.00
55610;BME280;41486;52.502;13.486;2022-11-06T05:48:21;101193.44;;;4.36;100.00
55610;BME280;41486;52.502;13.486;2022-11-06T05:50:49;101194.53;;;4.30;100.00
55610;BME280;41486;52.502;13.486;2022-11-06T05:53:17;101191.81;;;4.33;100.00
55610;BME280;41486;52.502;13.486;2022-11-06T05:55:45;101196.72;;;4.19;100.00
55610;BME280;41486;52.502;13.486;2022-11-06T05:58:14;101193.34;;;4.17;100.00
55610;BME280;41486;52.502;13.486;2022-11-06T06:00:42;101189.78;;;4.40;100.00
55610;BME280;41486;52.502;13.486;2022-11-06T06:03:10;101191.53;;;4.19;100.00
55610;BME280;41486;52.502;13.486;2022-11-06T06:05:38;101190.66;;;4.18;100.00
55610;BME280;41486;52.502;13.486;2022-11-06T06:08:06;101196.41;;;4.26;100.00
55610;BME280;41486;52.502;13.486;2022-11-06T06:10:34;101193.84;;;4.04;100.00
55610;BME280;41486;52.502;13.486;2022-11-06T06:13:02;101196.72;;;4.19;100.00
55610;BME280;41486;52.502;13.486;2022-11-06T06:15:31;101197.47;;;4.00;100.00
55610;BME280;41486;52.502;13.486;2022-11-06T06:17:59;101192.59;;;3.92;100.00
55610;BME280;41486;52.502;13.486;2022-11-06T06:20:27;101197.81;;;4.13;100.00
55610;BME280;41486;52.502;13.486;2022-11-06T06:22:55;101197.94;;;4.10;100.00
55610;BME280;41486;52.502;13.486;2022-11-06T06:25:23;101205.22;;;4.02;100.00
55610;BME280;41486;52.502;13.486;2022-11-06T06:27:51;101205.81;;;4.08;100.00
55610;BME280;41486;52.502;13.486;2022-11-06T06:30:20;101202.31;;;4.09;100.00
55610;BME280;41486;52.502;13.486;2022-11-06T06:32:50;101208.34;;;4.10;100.00
55610;BME280;41486;52.502;13.486;2022-11-06T06:35:18;101201.94;;;4.19;100.00
55610;BME280;41486;52.502;13.486;2022-11-06T06:37:50;101209.38;;;4.28;100.00
55610;BME280;41486;52.502;13.486;2022-11-06T06:40:19;101204.53;;;4.62;100.00
55610;BME280;41486;52.502;13.486;2022-11-06T06:42:48;101200.34;;;4.37;100.00
55610;BME280;41486;52.502;13.486;2022-11-06T06:45:16;101214.81;;;4.65;100.00
55610;BME280;41486;52.502;13.486;2022-11-06T06:47:44;101213.28;;;4.38;100.00
55610;BME280;41486;52.502;13.486;2022-11-06T06:50:13;101207.97;;;4.41;100.00
55610;BME280;41486;52.502;13.486;2022-11-06T06:52:41;101221.78;;;4.44;100.00
55610;BME280;41486;52.502;13.486;2022-11-06T06:55:09;101218.38;;;4.41;100.00
55610;BME280;41486;52.502;13.486;2022-11-06T06:57:37;101215.34;;;4.52;100.00
55610;BME280;41486;52.502;13.486;2022-11-06T07:00:06;101220.00;;;4.44;100.00
55610;BME280;41486;52.502;13.486;2022-11-06T07:02:34;101222.97;;;4.57;100.00
55610;BME280;41486;52.502;13.486;2022-11-06T07:05:01;101219.25;;;4.63;100.00
55610;BME280;41486;52.502;13.486;2022-11-06T07:07:32;101224.72;;;4.56;100.00
55610;BME280;41486;52.502;13.486;2022-11-06T07:10:02;101228.50;;;4.70;100.00
55610;BME280;41486;52.502;13.486;2022-11-06T07:12:30;101216.47;;;5.07;100.00
55610;BME280;41486;52.502;13.486;2022-11-06T07:14:58;101218.84;;;4.93;100.00
55610;BME280;41486;52.502;13.486;2022-11-06T07:17:26;101216.38;;;4.89;100.00
55610;BME280;41486;52.502;13.486;2022-11-06T07:19:54;101215.06;;;5.00;100.00
55610;BME280;41486;52.502;13.486;2022-11-06T07:22:25;101218.72;;;4.96;100.00
55610;BME280;41486;52.502;13.486;2022-11-06T07:25:04;101219.03;;;5.09;100.00
55610;BME280;41486;52.502;13.486;2022-11-06T07:27:32;101220.81;;;5.65;100.00
55610;BME280;41486;52.502;13.486;2022-11-06T07:30:00;101222.22;;;5.34;100.00
55610;BME280;41486;52.502;13.486;2022-11-06T07:32:28;101207.34;;;5.36;100.00
55610;BME280;41486;52.502;13.486;2022-11-06T07:34:56;101214.25;;;5.18;100.00
55610;BME280;41486;52.502;13.486;2022-11-06T07:37:24;101205.56;;;5.18;100.00
55610;BME280;41486;52.502;13.486;2022-11-06T07:39:54;101205.03;;;5.30;100.00
55610;BME280;41486;52.502;13.486;2022-11-06T07:42:23;101205.72;;;5.34;100.00
55610;BME280;41486;52.502;13.486;2022-11-06T07:44:59;101208.91;;;5.41;100.00
55610;BME280;41486;52.502;13.486;2022-11-06T07:47:29;101211.53;;;5.41;100.00
55610;BME280;41486;52.502;13.486;2022-11-06T07:49:57;101214.69;;;5.47;100.00
55610;BME280;41486;52.502;13.486;2022-11-06T07:52:25;101213.56;;;5.53;100.00
55610;BME280;41486;52.502;13.486;2022-11-06T07:54:53;101209.03;;;5.57;100.00
55610;BME280;41486;52.502;13.486;2022-11-06T07:57:21;101208.84;;;5.61;100.00
55610;BME280;41486;52.502;13.486;2022-11-06T07:59:50;101211.22;;;5.66;100.00
55610;BME280;41486;52.502;13.486;2022-11-06T08:02:18;101204.22;;;5.85;100.00
55610;BME280;41486;52.502;13.486;2022-11-06T08:04:46;101201.53;;;5.87;100.00
55610;BME280;41486;52.502;13.486;2022-11-06T08:07:14;101198.78;;;5.90;100.00
55610;BME280;41486;52.502;13.486;2022-11-06T08:09:42;101203.78;;;5.95;100.00
55610;BME280;41486;52.502;13.486;2022-11-06T08:12:09;101211.22;;;6.04;100.00
55610;BME280;41486;52.502;13.486;2022-11-06T08:14:40;101208.16;;;6.13;100.00
55610;BME280;41486;52.502;13.486;2022-11-06T08:17:09;101207.53;;;6.26;100.00
55610;BME280;41486;52.502;13.486;2022-11-06T08:19:36;101204.69;;;6.30;100.00
55610;BME280;41486;52.502;13.486;2022-11-06T08:22:04;101198.47;;;6.33;100.00
55610;BME280;41486;52.502;13.486;2022-11-06T08:24:32;101193.97;;;6.37;100.00
55610;BME280;41486;52.502;13.486;2022-11-06T08:27:00;101193.25;;;6.51;100.00
55610;BME280;41486;52.502;13.486;2022-11-06T08:29:28;101195.56;;;6.57;100.00
55610;BME280;41486;52.502;13.486;2022-11-06T08:31:56;101192.19;;;6.55;100.00
55610;BME280;41486;52.502;13.486;2022-11-06T08:34:25;101191.53;;;6.67;100.00
55610;BME280;41486;52.502;13.486;2022-11-06T08:36:53;101194.69;;;6.74;100.00
55610;BME280;41486;52.502;13.486;2022-11-06T08:39:21;101193.09;;;6.71;100.00
55610;BME280;41486;52.502;13.486;2022-11-06T08:41:49;101199.47;;;6.83;100.00
55610;BME280;41486;52.502;13.486;2022-11-06T08:44:16;101196.75;;;6.85;100.00
55610;BME280;41486;52.502;13.486;2022-11-06T08:46:47;101184.81;;;6.97;100.00
55610;BME280;41486;52.502;13.486;2022-11-06T08:49:18;101182.53;;;7.06;100.00
55610;BME280;41486;52.502;13.486;2022-11-06T08:51:47;101176.91;;;7.14;100.00
55610;BME280;41486;52.502;13.486;2022-11-06T08:54:15;101176.66;;;7.19;100.00
55610;BME280;41486;52.502;13.486;2022-11-06T08:56:43;101166.63;;;7.27;100.00
55610;BME280;41486;52.502;13.486;2022-11-06T08:59:11;101164.75;;;7.13;100.00
55610;BME280;41486;52.502;13.486;2022-11-06T09:01:39;101166.53;;;7.29;100.00
55610;BME280;41486;52.502;13.486;2022-11-06T09:04:07;101165.28;;;7.36;100.00
55610;BME280;41486;52.502;13.486;2022-11-06T09:06:35;101171.81;;;7.45;100.00
55610;BME280;41486;52.502;13.486;2022-11-06T09:09:04;101174.06;;;7.51;100.00
55610;BME280;41486;52.502;13.486;2022-11-06T09:11:32;101172.22;;;7.53;100.00
55610;BME280;41486;52.502;13.486;2022-11-06T09:14:00;101171.22;;;7.55;100.00
55610;BME280;41486;52.502;13.486;2022-11-06T09:16:30;101176.78;;;7.65;100.00
55610;BME280;41486;52.502;13.486;2022-11-06T09:19:02;101168.97;;;7.80;100.00
55610;BME280;41486;52.502;13.486;2022-11-06T09:21:30;101161.88;;;7.82;100.00
55610;BME280;41486;52.502;13.486;2022-11-06T09:23:58;101170.00;;;7.93;100.00
55610;BME280;41486;52.502;13.486;2022-11-06T09:26:27;101167.69;;;8.03;100.00
55610;BME280;41486;52.502;13.486;2022-11-06T09:28:55;101167.69;;;8.03;100.00
55610;BME280;41486;52.502;13.486;2022-11-06T09:31:23;101163.88;;;8.09;100.00
55610;BME280;41486;52.502;13.486;2022-11-06T09:33:51;101166.53;;;8.23;100.00
55610;BME280;41486;52.502;13.486;2022-11-06T09:36:19;101164.47;;;8.28;100.00
55610;BME280;41486;52.502;13.486;2022-11-06T09:38:47;101171.66;;;8.41;100.00
55610;BME280;41486;52.502;13.486;2022-11-06T09:41:20;101167.06;;;8.44;100.00
55610;BME280;41486;52.502;13.486;2022-11-06T09:44:01;101170.19;;;8.51;100.00
55610;BME280;41486;52.502;13.486;2022-11-06T09:46:37;101166.53;;;8.53;100.00
55610;BME280;41486;52.502;13.486;2022-11-06T09:49:11;101162.63;;;8.61;100.00
55610;BME280;41486;52.502;13.486;2022-11-06T09:51:47;101170.41;;;8.62;100.00
55610;BME280;41486;52.502;13.486;2022-11-06T09:54:19;101167.41;;;8.68;99.88
55610;BME280;41486;52.502;13.486;2022-11-06T09:56:51;101160.06;;;8.74;100.00
55610;BME280;41486;52.502;13.486;2022-11-06T09:59:23;101161.97;;;8.72;99.26
55610;BME280;41486;52.502;13.486;2022-11-06T10:01:53;101154.94;;;8.72;99.00
55610;BME280;41486;52.502;13.486;2022-11-06T10:04:34;101162.41;;;8.64;97.88
55610;BME280;41486;52.502;13.486;2022-11-06T10:07:17;101162.16;;;8.83;98.71
55610;BME280;41486;52.502;13.486;2022-11-06T10:09:45;101158.22;;;8.90;97.67
55610;BME280;41486;52.502;13.486;2022-11-06T10:12:19;101148.66;;;9.04;96.67
55610;BME280;41486;52.502;13.486;2022-11-06T10:14:59;101151.66;;;8.97;95.92
55610;BME280;41486;52.502;13.486;2022-11-06T10:17:40;101151.97;;;8.93;96.44
55610;BME280;41486;52.502;13.486;2022-11-06T10:20:16;101142.13;;;8.96;95.63
55610;BME280;41486;52.502;13.486;2022-11-06T10:23:01;101149.63;;;8.88;96.59
55610;BME280;41486;52.502;13.486;2022-11-06T10:25:42;101153.34;;;8.98;96.18
55610;BME280;41486;52.502;13.486;2022-11-06T10:28:23;101142.38;;;9.06;95.81
55610;BME280;41486;52.502;13.486;2022-11-06T10:31:02;101132.25;;;9.14;95.25
55610;BME280;41486;52.502;13.486;2022-11-06T10:33:44;101128.31;;;9.07;94.81
55610;BME280;41486;52.502;13.486;2022-11-06T10:36:17;101127.84;;;9.00;95.86
55610;BME280;41486;52.502;13.486;2022-11-06T10:38:50;101121.72;;;9.29;95.14
55610;BME280;41486;52.502;13.486;2022-11-06T10:41:21;101118.38;;;9.40;94.06
55610;BME280;41486;52.502;13.486;2022-11-06T10:43:52;101120.25;;;9.38;92.81
55610;BME280;41486;52.502;13.486;2022-11-06T10:46:28;101115.41;;;9.31;93.03
55610;BME280;41486;52.502;13.486;2022-11-06T10:48:58;101113.94;;;9.55;93.75
55610;BME280;41486;52.502;13.486;2022-11-06T10:51:36;101103.50;;;9.68;91.13
55610;BME280;41486;52.502;13.486;2022-11-06T10:54:20;101097.59;;;10.04;89.98
55610;BME280;41486;52.502;13.486;2022-11-06T10:57:09;101098.75;;;10.26;87.99
55610;BME280;41486;52.502;13.486;2022-11-06T10:59:46;101099.91;;;10.99;85.12
55610;BME280;41486;52.502;13.486;2022-11-06T11:02:24;101095.09;;;11.42;82.03
55610;BME280;41486;52.502;13.486;2022-11-06T11:04:53;101101.03;;;12.05;77.27
55610;BME280;41486;52.502;13.486;2022-11-06T11:07:25;101088.31;;;12.69;74.37
55610;BME280;41486;52.502;13.486;2022-11-06T11:09:55;101096.66;;;13.63;67.45
55610;BME280;41486;52.502;13.486;2022-11-06T11:12:25;101088.25;;;13.69;68.48
55610;BME280;41486;52.502;13.486;2022-11-06T11:15:09;101090.41;;;14.18;65.05
55610;BME280;41486;52.502;13.486;2022-11-06T11:17:40;101088.16;;;14.44;63.63
55610;BME280;41486;52.502;13.486;2022-11-06T11:20:30;101084.38;;;13.95;65.24
55610;BME280;41486;52.502;13.486;2022-11-06T11:23:06;101073.50;;;14.40;63.91
55610;BME280;41486;52.502;13.486;2022-11-06T11:25:41;101080.59;;;13.55;65.57
55610;BME280;41486;52.502;13.486;2022-11-06T11:28:24;101076.47;;;11.69;75.69
55610;BME280;41486;52.502;13.486;2022-11-06T11:31:00;101067.59;;;10.71;82.36
55610;BME280;41486;52.502;13.486;2022-11-06T11:33:31;101063.00;;;10.62;84.34
55610;BME280;41486;52.502;13.486;2022-11-06T11:35:59;101070.06;;;10.62;84.13
55610;BME280;41486;52.502;13.486;2022-11-06T11:38:28;101068.56;;;10.70;83.97
55610;BME280;41486;52.502;13.486;2022-11-06T11:41:05;101074.38;;;10.63;83.92
55610;BME280;41486;52.502;13.486;2022-11-06T11:43:34;101060.34;;;10.75;84.10
55610;BME280;41486;52.502;13.486;2022-11-06T11:46:17;101057.97;;;10.96;83.50
55610;BME280;41486;52.502;13.486;2022-11-06T11:48:49;101062.59;;;11.05;82.25
55610;BME280;41486;52.502;13.486;2022-11-06T11:51:27;101055.88;;;11.26;81.38
55610;BME280;41486;52.502;13.486;2022-11-06T11:53:58;101055.88;;;11.26;80.42
55610;BME280;41486;52.502;13.486;2022-11-06T11:56:28;101037.94;;;11.55;80.03
55610;BME280;41486;52.502;13.486;2022-11-06T11:59:19;101040.25;;;11.71;80.38
55610;BME280;41486;52.502;13.486;2022-11-06T12:01:48;101036.19;;;12.03;77.82
55610;BME280;41486;52.502;13.486;2022-11-06T12:04:21;101041.00;;;12.54;75.09
55610;BME280;41486;52.502;13.486;2022-11-06T12:06:57;101036.09;;;12.15;75.98
55610;BME280;41486;52.502;13.486;2022-11-06T12:09:28;101038.22;;;12.10;75.31
55610;BME280;41486;52.502;13.486;2022-11-06T12:12:00;101034.63;;;13.88;68.48
55610;BME280;41486;52.502;13.486;2022-11-06T12:14:33;101028.03;;;15.26;61.16
55610;BME280;41486;52.502;13.486;2022-11-06T12:17:10;101017.09;;;16.08;57.74
55610;BME280;41486;52.502;13.486;2022-11-06T12:19:47;101022.69;;;15.07;59.35
55610;BME280;41486;52.502;13.486;2022-11-06T12:22:23;101011.19;;;16.14;57.07
55610;BME280;41486;52.502;13.486;2022-11-06T12:24:57;101006.94;;;16.31;54.84
55610;BME280;41486;52.502;13.486;2022-11-06T12:27:28;100997.81;;;16.44;56.22
55610;BME280;41486;52.502;13.486;2022-11-06T12:30:04;101007.13;;;18.02;51.91
55610;BME280;41486;52.502;13.486;2022-11-06T12:32:44;101000.44;;;17.54;51.40
55610;BME280;41486;52.502;13.486;2022-11-06T12:35:23;101010.69;;;19.13;48.08
55610;BME280;41486;52.502;13.486;2022-11-06T12:38:03;101004.81;;;18.07;48.54
55610;BME280;41486;52.502;13.486;2022-11-06T12:40:37;100997.19;;;18.12;49.96
55610;BME280;41486;52.502;13.486;2022-11-06T12:43:17;100988.72;;;17.91;49.71
55610;BME280;41486;52.502;13.486;2022-11-06T12:45:55;100989.81;;;17.80;49.54
55610;BME280;41486;52.502;13.486;2022-11-06T12:48:34;100998.72;;;19.09;46.87
55610;BME280;41486;52.502;13.486;2022-11-06T12:51:13;100992.75;;;17.50;50.76
55610;BME280;41486;52.502;13.486;2022-11-06T12:53:54;100992.25;;;16.65;51.56
55610;BME280;41486;52.502;13.486;2022-11-06T12:56:31;100996.88;;;15.77;54.40
55610;BME280;41486;52.502;13.486;2022-11-06T12:59:11;100989.22;;;14.86;57.76
55610;BME280;41486;52.502;13.486;2022-11-06T13:01:52;100981.38;;;14.03;62.66
55610;BME280;41486;52.502;13.486;2022-11-06T13:04:33;100980.88;;;13.67;64.77
55610;BME280;41486;52.502;13.486;2022-11-06T13:07:29;100967.66;;;13.13;66.64